Old Union, Mississippi
Current Conditions -  °F | °C
As of 3:53 PM on Monday 22 Dec 2014 (Local Time) from KTUP Reporting Station
Haze Haze  
Wind Chill: 12°   Ceiling: 300
Heat Index: 12°   Visibility: 3mi
Dew Point: 11°   Wind: 10mph
Humidity: 93%   Direction: 160°SSE
Pressure: 29.69"   Gusts: NA
Location:  34.1202°N, 88.7439°W
Report Text: KTUP 222153Z 16009KT 3SM BR OVC003 12/11 A2969 RMK AO2 SLP053 T01220111
Loading
Personal Weather Stations






























Interactive Weather Map New forecast layout! Learn more

10-Day Weather Forecast

Advertisements
Track Severe Weather on mobile